sensor_id;sensor_type;location;lat;lon;timestamp;P1;durP1;ratioP1;P2;durP2;ratioP2
59998;SDS011;45859;51.378;6.736;2023-01-23T00:00:38;28.73;;;12.33;;
59998;SDS011;45859;51.378;6.736;2023-01-23T00:03:09;28.30;;;11.10;;
59998;SDS011;45859;51.378;6.736;2023-01-23T00:05:35;29.93;;;12.13;;
59998;SDS011;45859;51.378;6.736;2023-01-23T00:08:00;32.77;;;12.40;;
59998;SDS011;45859;51.378;6.736;2023-01-23T00:10:26;28.37;;;10.37;;
59998;SDS011;45859;51.378;6.736;2023-01-23T00:12:52;29.90;;;11.63;;
59998;SDS011;45859;51.378;6.736;2023-01-23T00:15:18;27.97;;;11.00;;
59998;SDS011;45859;51.378;6.736;2023-01-23T00:17:44;30.37;;;11.30;;
59998;SDS011;45859;51.378;6.736;2023-01-23T00:20:13;28.67;;;10.73;;
59998;SDS011;45859;51.378;6.736;2023-01-23T00:22:38;31.37;;;12.20;;
59998;SDS011;45859;51.378;6.736;2023-01-23T00:25:05;27.73;;;11.53;;
59998;SDS011;45859;51.378;6.736;2023-01-23T00:27:31;25.07;;;10.33;;
59998;SDS011;45859;51.378;6.736;2023-01-23T00:29:57;34.67;;;10.90;;
59998;SDS011;45859;51.378;6.736;2023-01-23T00:32:23;29.33;;;11.63;;
59998;SDS011;45859;51.378;6.736;2023-01-23T00:34:48;30.13;;;10.43;;
59998;SDS011;45859;51.378;6.736;2023-01-23T00:37:14;26.03;;;11.20;;
59998;SDS011;45859;51.378;6.736;2023-01-23T00:39:41;29.50;;;10.83;;
59998;SDS011;45859;51.378;6.736;2023-01-23T00:42:07;22.70;;;10.40;;
59998;SDS011;45859;51.378;6.736;2023-01-23T00:44:33;30.43;;;10.90;;
59998;SDS011;45859;51.378;6.736;2023-01-23T00:46:59;25.20;;;10.97;;
59998;SDS011;45859;51.378;6.736;2023-01-23T00:49:24;28.83;;;10.27;;
59998;SDS011;45859;51.378;6.736;2023-01-23T00:51:50;26.03;;;10.20;;
59998;SDS011;45859;51.378;6.736;2023-01-23T00:54:18;25.53;;;11.03;;
59998;SDS011;45859;51.378;6.736;2023-01-23T00:56:45;29.13;;;11.50;;
59998;SDS011;45859;51.378;6.736;2023-01-23T00:59:11;23.20;;;10.63;;
59998;SDS011;45859;51.378;6.736;2023-01-23T01:01:37;28.93;;;11.57;;
59998;SDS011;45859;51.378;6.736;2023-01-23T01:04:03;25.47;;;10.13;;
59998;SDS011;45859;51.378;6.736;2023-01-23T01:06:30;24.30;;;10.63;;
59998;SDS011;45859;51.378;6.736;2023-01-23T01:08:56;21.67;;;9.37;;
59998;SDS011;45859;51.378;6.736;2023-01-23T01:11:22;32.13;;;11.33;;
59998;SDS011;45859;51.378;6.736;2023-01-23T01:13:48;32.67;;;12.13;;
59998;SDS011;45859;51.378;6.736;2023-01-23T01:16:14;25.27;;;11.20;;
59998;SDS011;45859;51.378;6.736;2023-01-23T01:18:39;28.40;;;11.63;;
59998;SDS011;45859;51.378;6.736;2023-01-23T01:21:06;28.00;;;10.93;;
59998;SDS011;45859;51.378;6.736;2023-01-23T01:23:33;25.20;;;12.50;;
59998;SDS011;45859;51.378;6.736;2023-01-23T01:26:00;26.00;;;11.47;;
59998;SDS011;45859;51.378;6.736;2023-01-23T01:28:26;29.03;;;11.40;;
59998;SDS011;45859;51.378;6.736;2023-01-23T01:30:54;24.47;;;10.73;;
59998;SDS011;45859;51.378;6.736;2023-01-23T01:33:20;27.70;;;11.83;;
59998;SDS011;45859;51.378;6.736;2023-01-23T01:35:48;30.33;;;11.57;;
59998;SDS011;45859;51.378;6.736;2023-01-23T01:38:14;29.00;;;11.83;;
59998;SDS011;45859;51.378;6.736;2023-01-23T01:40:39;30.50;;;11.83;;
59998;SDS011;45859;51.378;6.736;2023-01-23T01:43:06;28.20;;;12.47;;
59998;SDS011;45859;51.378;6.736;2023-01-23T01:51:15;32.83;;;10.63;;
59998;SDS011;45859;51.378;6.736;2023-01-23T01:56:43;24.47;;;10.47;;
59998;SDS011;45859;51.378;6.736;2023-01-23T01:59:55;24.63;;;10.33;;
59998;SDS011;45859;51.378;6.736;2023-01-23T02:02:23;26.00;;;10.33;;
59998;SDS011;45859;51.378;6.736;2023-01-23T02:05:01;22.43;;;9.30;;
59998;SDS011;45859;51.378;6.736;2023-01-23T02:10:08;23.80;;;9.77;;
59998;SDS011;45859;51.378;6.736;2023-01-23T02:12:35;24.27;;;10.73;;
59998;SDS011;45859;51.378;6.736;2023-01-23T02:15:03;25.33;;;9.93;;
59998;SDS011;45859;51.378;6.736;2023-01-23T02:17:30;26.73;;;11.20;;
59998;SDS011;45859;51.378;6.736;2023-01-23T02:20:00;13.40;;;6.20;;
59998;SDS011;45859;51.378;6.736;2023-01-23T02:28:09;19.83;;;8.63;;
59998;SDS011;45859;51.378;6.736;2023-01-23T02:30:36;20.23;;;8.37;;
59998;SDS011;45859;51.378;6.736;2023-01-23T02:33:11;25.10;;;9.23;;
59998;SDS011;45859;51.378;6.736;2023-01-23T02:35:48;19.53;;;8.60;;
59998;SDS011;45859;51.378;6.736;2023-01-23T02:38:14;18.73;;;8.03;;
59998;SDS011;45859;51.378;6.736;2023-01-23T02:40:44;10.18;;;4.28;;
59998;SDS011;45859;51.378;6.736;2023-01-23T02:43:14;20.60;;;8.57;;
59998;SDS011;45859;51.378;6.736;2023-01-23T02:45:43;11.53;;;6.07;;
59998;SDS011;45859;51.378;6.736;2023-01-23T02:48:09;19.50;;;8.00;;
59998;SDS011;45859;51.378;6.736;2023-01-23T02:50:35;16.60;;;8.70;;
59998;SDS011;45859;51.378;6.736;2023-01-23T02:53:01;21.53;;;8.73;;
59998;SDS011;45859;51.378;6.736;2023-01-23T02:55:27;19.00;;;8.93;;
59998;SDS011;45859;51.378;6.736;2023-01-23T02:57:57;19.23;;;7.75;;
59998;SDS011;45859;51.378;6.736;2023-01-23T03:00:42;20.63;;;7.47;;
59998;SDS011;45859;51.378;6.736;2023-01-23T03:03:08;20.83;;;8.13;;
59998;SDS011;45859;51.378;6.736;2023-01-23T03:05:33;18.60;;;7.67;;
59998;SDS011;45859;51.378;6.736;2023-01-23T03:07:59;21.63;;;9.20;;
59998;SDS011;45859;51.378;6.736;2023-01-23T03:10:25;22.87;;;8.97;;
59998;SDS011;45859;51.378;6.736;2023-01-23T03:12:51;21.20;;;6.97;;
59998;SDS011;45859;51.378;6.736;2023-01-23T03:15:16;19.83;;;8.23;;
59998;SDS011;45859;51.378;6.736;2023-01-23T03:17:42;20.20;;;7.57;;
59998;SDS011;45859;51.378;6.736;2023-01-23T03:20:08;15.97;;;8.03;;
59998;SDS011;45859;51.378;6.736;2023-01-23T03:22:34;18.43;;;8.40;;
59998;SDS011;45859;51.378;6.736;2023-01-23T03:25:00;18.10;;;8.23;;
59998;SDS011;45859;51.378;6.736;2023-01-23T03:27:26;15.60;;;6.50;;
59998;SDS011;45859;51.378;6.736;2023-01-23T03:29:51;21.93;;;8.63;;
59998;SDS011;45859;51.378;6.736;2023-01-23T03:32:36;24.67;;;9.50;;
59998;SDS011;45859;51.378;6.736;2023-01-23T03:35:03;21.50;;;8.57;;
59998;SDS011;45859;51.378;6.736;2023-01-23T03:37:29;23.10;;;9.90;;
59998;SDS011;45859;51.378;6.736;2023-01-23T03:39:55;21.43;;;9.63;;
59998;SDS011;45859;51.378;6.736;2023-01-23T03:42:39;19.87;;;9.13;;
59998;SDS011;45859;51.378;6.736;2023-01-23T03:45:05;16.63;;;7.93;;
59998;SDS011;45859;51.378;6.736;2023-01-23T03:47:31;21.93;;;8.97;;
59998;SDS011;45859;51.378;6.736;2023-01-23T03:49:57;23.10;;;9.63;;
59998;SDS011;45859;51.378;6.736;2023-01-23T03:52:23;15.27;;;7.20;;
59998;SDS011;45859;51.378;6.736;2023-01-23T03:54:48;15.80;;;8.10;;
59998;SDS011;45859;51.378;6.736;2023-01-23T03:57:14;20.23;;;8.13;;
59998;SDS011;45859;51.378;6.736;2023-01-23T03:59:40;26.70;;;10.40;;
59998;SDS011;45859;51.378;6.736;2023-01-23T04:02:05;26.83;;;10.03;;
59998;SDS011;45859;51.378;6.736;2023-01-23T04:04:32;20.03;;;9.33;;
59998;SDS011;45859;51.378;6.736;2023-01-23T04:06:59;17.67;;;9.27;;
59998;SDS011;45859;51.378;6.736;2023-01-23T04:09:25;18.10;;;7.47;;
59998;SDS011;45859;51.378;6.736;2023-01-23T04:11:56;20.23;;;9.03;;
59998;SDS011;45859;51.378;6.736;2023-01-23T04:16:48;17.97;;;7.83;;
59998;SDS011;45859;51.378;6.736;2023-01-23T04:19:14;19.60;;;8.97;;
59998;SDS011;45859;51.378;6.736;2023-01-23T04:21:43;17.97;;;7.90;;
59998;SDS011;45859;51.378;6.736;2023-01-23T04:24:10;17.67;;;7.70;;
59998;SDS011;45859;51.378;6.736;2023-01-23T04:26:36;25.50;;;9.83;;
59998;SDS011;45859;51.378;6.736;2023-01-23T04:29:02;13.63;;;7.07;;
59998;SDS011;45859;51.378;6.736;2023-01-23T04:31:29;24.03;;;10.00;;
59998;SDS011;45859;51.378;6.736;2023-01-23T04:33:55;19.80;;;9.33;;
59998;SDS011;45859;51.378;6.736;2023-01-23T04:36:20;22.13;;;9.37;;
59998;SDS011;45859;51.378;6.736;2023-01-23T04:38:46;21.10;;;9.70;;
59998;SDS011;45859;51.378;6.736;2023-01-23T04:41:20;19.67;;;6.97;;
59998;SDS011;45859;51.378;6.736;2023-01-23T04:43:47;24.40;;;9.13;;
59998;SDS011;45859;51.378;6.736;2023-01-23T04:46:13;20.47;;;8.43;;
59998;SDS011;45859;51.378;6.736;2023-01-23T04:48:39;18.93;;;8.13;;
59998;SDS011;45859;51.378;6.736;2023-01-23T04:51:04;19.67;;;8.73;;
59998;SDS011;45859;51.378;6.736;2023-01-23T04:53:30;25.10;;;9.83;;
59998;SDS011;45859;51.378;6.736;2023-01-23T04:55:56;21.47;;;8.53;;
59998;SDS011;45859;51.378;6.736;2023-01-23T04:58:22;16.13;;;8.07;;
59998;SDS011;45859;51.378;6.736;2023-01-23T05:00:48;24.80;;;10.13;;
59998;SDS011;45859;51.378;6.736;2023-01-23T05:03:14;23.77;;;10.23;;
59998;SDS011;45859;51.378;6.736;2023-01-23T05:05:40;20.67;;;8.70;;
59998;SDS011;45859;51.378;6.736;2023-01-23T05:08:08;21.17;;;8.57;;
59998;SDS011;45859;51.378;6.736;2023-01-23T05:10:35;20.40;;;8.43;;
59998;SDS011;45859;51.378;6.736;2023-01-23T05:13:01;24.10;;;9.63;;
59998;SDS011;45859;51.378;6.736;2023-01-23T05:15:27;18.80;;;8.90;;
59998;SDS011;45859;51.378;6.736;2023-01-23T05:17:53;21.87;;;9.73;;
59998;SDS011;45859;51.378;6.736;2023-01-23T05:20:19;18.87;;;9.30;;
59998;SDS011;45859;51.378;6.736;2023-01-23T05:22:47;23.73;;;9.67;;
59998;SDS011;45859;51.378;6.736;2023-01-23T05:25:23;21.00;;;8.57;;
59998;SDS011;45859;51.378;6.736;2023-01-23T05:27:51;23.27;;;10.20;;
59998;SDS011;45859;51.378;6.736;2023-01-23T05:30:17;22.30;;;8.93;;
59998;SDS011;45859;51.378;6.736;2023-01-23T05:32:45;20.80;;;8.93;;
59998;SDS011;45859;51.378;6.736;2023-01-23T05:35:11;20.40;;;8.40;;
59998;SDS011;45859;51.378;6.736;2023-01-23T05:37:38;28.23;;;9.97;;
59998;SDS011;45859;51.378;6.736;2023-01-23T05:40:04;24.80;;;10.10;;
59998;SDS011;45859;51.378;6.736;2023-01-23T05:42:32;22.20;;;9.57;;
59998;SDS011;45859;51.378;6.736;2023-01-23T05:44:58;19.93;;;8.00;;
59998;SDS011;45859;51.378;6.736;2023-01-23T05:47:24;20.53;;;8.43;;
59998;SDS011;45859;51.378;6.736;2023-01-23T05:49:51;18.63;;;8.60;;
59998;SDS011;45859;51.378;6.736;2023-01-23T05:52:16;19.43;;;8.40;;
59998;SDS011;45859;51.378;6.736;2023-01-23T05:54:42;21.13;;;9.07;;
59998;SDS011;45859;51.378;6.736;2023-01-23T05:57:08;20.70;;;9.07;;
59998;SDS011;45859;51.378;6.736;2023-01-23T05:59:34;21.33;;;9.53;;
59998;SDS011;45859;51.378;6.736;2023-01-23T06:02:00;22.73;;;9.07;;
59998;SDS011;45859;51.378;6.736;2023-01-23T06:04:26;22.80;;;9.80;;
59998;SDS011;45859;51.378;6.736;2023-01-23T06:06:51;16.73;;;7.30;;
59998;SDS011;45859;51.378;6.736;2023-01-23T06:09:17;13.43;;;6.93;;
59998;SDS011;45859;51.378;6.736;2023-01-23T06:11:43;12.80;;;5.60;;
59998;SDS011;45859;51.378;6.736;2023-01-23T06:14:08;18.23;;;8.50;;
59998;SDS011;45859;51.378;6.736;2023-01-23T06:16:34;19.07;;;8.87;;
59998;SDS011;45859;51.378;6.736;2023-01-23T06:19:00;17.07;;;7.60;;
59998;SDS011;45859;51.378;6.736;2023-01-23T06:21:25;17.97;;;8.67;;
59998;SDS011;45859;51.378;6.736;2023-01-23T06:23:51;19.00;;;8.10;;
59998;SDS011;45859;51.378;6.736;2023-01-23T06:26:17;17.30;;;7.13;;
59998;SDS011;45859;51.378;6.736;2023-01-23T06:28:42;20.87;;;9.73;;
59998;SDS011;45859;51.378;6.736;2023-01-23T06:31:08;19.20;;;8.13;;
59998;SDS011;45859;51.378;6.736;2023-01-23T06:33:34;18.23;;;7.70;;
59998;SDS011;45859;51.378;6.736;2023-01-23T06:36:01;28.43;;;10.73;;
59998;SDS011;45859;51.378;6.736;2023-01-23T06:38:29;20.70;;;9.07;;
59998;SDS011;45859;51.378;6.736;2023-01-23T06:40:55;20.83;;;9.37;;
59998;SDS011;45859;51.378;6.736;2023-01-23T06:43:21;23.90;;;9.33;;
59998;SDS011;45859;51.378;6.736;2023-01-23T06:45:48;21.47;;;9.17;;
59998;SDS011;45859;51.378;6.736;2023-01-23T06:48:14;23.13;;;9.43;;
59998;SDS011;45859;51.378;6.736;2023-01-23T06:50:40;21.93;;;9.60;;
59998;SDS011;45859;51.378;6.736;2023-01-23T06:53:07;17.97;;;8.47;;
59998;SDS011;45859;51.378;6.736;2023-01-23T06:55:36;23.63;;;8.87;;
59998;SDS011;45859;51.378;6.736;2023-01-23T06:58:01;25.37;;;10.53;;
59998;SDS011;45859;51.378;6.736;2023-01-23T07:00:27;25.07;;;9.70;;
59998;SDS011;45859;51.378;6.736;2023-01-23T07:02:53;21.93;;;8.93;;
59998;SDS011;45859;51.378;6.736;2023-01-23T07:05:22;21.23;;;8.65;;
59998;SDS011;45859;51.378;6.736;2023-01-23T07:07:49;25.40;;;10.20;;
59998;SDS011;45859;51.378;6.736;2023-01-23T07:10:15;26.73;;;12.50;;
59998;SDS011;45859;51.378;6.736;2023-01-23T07:12:41;22.63;;;9.83;;
59998;SDS011;45859;51.378;6.736;2023-01-23T07:15:07;32.10;;;11.23;;
59998;SDS011;45859;51.378;6.736;2023-01-23T07:17:33;23.97;;;10.47;;
59998;SDS011;45859;51.378;6.736;2023-01-23T07:19:59;29.73;;;11.70;;
59998;SDS011;45859;51.378;6.736;2023-01-23T07:22:24;27.13;;;9.83;;
59998;SDS011;45859;51.378;6.736;2023-01-23T07:24:50;29.53;;;11.17;;
59998;SDS011;45859;51.378;6.736;2023-01-23T07:27:16;19.80;;;7.93;;
59998;SDS011;45859;51.378;6.736;2023-01-23T07:29:41;28.73;;;12.43;;
59998;SDS011;45859;51.378;6.736;2023-01-23T07:32:07;28.93;;;11.70;;
59998;SDS011;45859;51.378;6.736;2023-01-23T07:34:33;29.73;;;11.20;;
59998;SDS011;45859;51.378;6.736;2023-01-23T07:37:00;25.40;;;10.43;;
59998;SDS011;45859;51.378;6.736;2023-01-23T07:39:25;32.83;;;13.13;;
59998;SDS011;45859;51.378;6.736;2023-01-23T07:41:54;26.60;;;11.53;;
59998;SDS011;45859;51.378;6.736;2023-01-23T07:44:20;31.67;;;11.80;;
59998;SDS011;45859;51.378;6.736;2023-01-23T07:46:46;36.30;;;13.73;;
59998;SDS011;45859;51.378;6.736;2023-01-23T07:49:13;28.90;;;11.67;;
59998;SDS011;45859;51.378;6.736;2023-01-23T07:51:39;25.83;;;10.43;;
59998;SDS011;45859;51.378;6.736;2023-01-23T07:54:05;31.60;;;11.67;;
59998;SDS011;45859;51.378;6.736;2023-01-23T07:56:31;26.50;;;10.53;;
59998;SDS011;45859;51.378;6.736;2023-01-23T07:58:57;29.00;;;11.07;;
59998;SDS011;45859;51.378;6.736;2023-01-23T08:01:23;22.07;;;8.73;;
59998;SDS011;45859;51.378;6.736;2023-01-23T08:03:49;31.73;;;11.93;;
59998;SDS011;45859;51.378;6.736;2023-01-23T08:06:16;27.43;;;12.43;;
59998;SDS011;45859;51.378;6.736;2023-01-23T08:08:41;24.07;;;9.03;;
59998;SDS011;45859;51.378;6.736;2023-01-23T08:11:07;23.30;;;10.43;;
59998;SDS011;45859;51.378;6.736;2023-01-23T08:13:37;26.43;;;10.73;;
59998;SDS011;45859;51.378;6.736;2023-01-23T08:16:02;26.00;;;9.93;;
59998;SDS011;45859;51.378;6.736;2023-01-23T08:18:29;26.10;;;9.20;;
59998;SDS011;45859;51.378;6.736;2023-01-23T08:20:56;33.83;;;11.47;;
59998;SDS011;45859;51.378;6.736;2023-01-23T08:23:27;30.70;;;11.50;;
59998;SDS011;45859;51.378;6.736;2023-01-23T08:25:55;30.03;;;10.83;;
59998;SDS011;45859;51.378;6.736;2023-01-23T08:28:22;37.20;;;14.70;;
59998;SDS011;45859;51.378;6.736;2023-01-23T08:30:48;28.20;;;10.77;;
59998;SDS011;45859;51.378;6.736;2023-01-23T08:33:14;25.40;;;10.30;;
59998;SDS011;45859;51.378;6.736;2023-01-23T08:35:50;30.90;;;11.83;;
59998;SDS011;45859;51.378;6.736;2023-01-23T08:38:21;26.38;;;11.25;;
59998;SDS011;45859;51.378;6.736;2023-01-23T08:40:48;31.53;;;11.97;;
59998;SDS011;45859;51.378;6.736;2023-01-23T08:43:15;25.00;;;9.77;;
59998;SDS011;45859;51.378;6.736;2023-01-23T08:45:46;32.33;;;12.00;;
59998;SDS011;45859;51.378;6.736;2023-01-23T08:48:13;28.33;;;12.10;;
59998;SDS011;45859;51.378;6.736;2023-01-23T08:50:39;12.37;;;4.93;;
59998;SDS011;45859;51.378;6.736;2023-01-23T08:53:04;27.17;;;10.07;;
59998;SDS011;45859;51.378;6.736;2023-01-23T08:55:30;26.87;;;11.53;;
59998;SDS011;45859;51.378;6.736;2023-01-23T08:57:57;30.17;;;11.00;;
59998;SDS011;45859;51.378;6.736;2023-01-23T09:00:24;18.03;;;8.27;;
59998;SDS011;45859;51.378;6.736;2023-01-23T09:02:49;22.07;;;8.97;;
59998;SDS011;45859;51.378;6.736;2023-01-23T09:05:16;23.67;;;10.83;;
59998;SDS011;45859;51.378;6.736;2023-01-23T09:07:41;17.50;;;8.10;;
59998;SDS011;45859;51.378;6.736;2023-01-23T09:10:07;21.73;;;10.37;;
59998;SDS011;45859;51.378;6.736;2023-01-23T09:12:34;25.53;;;11.17;;
59998;SDS011;45859;51.378;6.736;2023-01-23T09:15:00;25.40;;;9.53;;
59998;SDS011;45859;51.378;6.736;2023-01-23T09:17:26;17.13;;;6.67;;
59998;SDS011;45859;51.378;6.736;2023-01-23T09:19:52;18.37;;;7.57;;
59998;SDS011;45859;51.378;6.736;2023-01-23T09:22:18;25.33;;;9.77;;
59998;SDS011;45859;51.378;6.736;2023-01-23T09:24:43;22.47;;;9.40;;
59998;SDS011;45859;51.378;6.736;2023-01-23T09:27:09;22.50;;;9.67;;
59998;SDS011;45859;51.378;6.736;2023-01-23T09:29:35;26.60;;;9.73;;
59998;SDS011;45859;51.378;6.736;2023-01-23T09:32:01;25.43;;;10.17;;
59998;SDS011;45859;51.378;6.736;2023-01-23T09:34:28;25.30;;;9.40;;
59998;SDS011;45859;51.378;6.736;2023-01-23T09:36:54;20.27;;;9.87;;
59998;SDS011;45859;51.378;6.736;2023-01-23T09:39:20;17.63;;;8.10;;
59998;SDS011;45859;51.378;6.736;2023-01-23T09:41:46;21.23;;;9.40;;
59998;SDS011;45859;51.378;6.736;2023-01-23T09:49:13;19.77;;;8.17;;
59998;SDS011;45859;51.378;6.736;2023-01-23T09:52:01;24.63;;;10.13;;
59998;SDS011;45859;51.378;6.736;2023-01-23T09:54:33;24.13;;;8.93;;
59998;SDS011;45859;51.378;6.736;2023-01-23T09:57:51;15.90;;;7.47;;
59998;SDS011;45859;51.378;6.736;2023-01-23T10:00:04;19.97;;;7.97;;
59998;SDS011;45859;51.378;6.736;2023-01-23T10:02:37;11.13;;;4.70;;
59998;SDS011;45859;51.378;6.736;2023-01-23T10:05:11;14.30;;;6.57;;
59998;SDS011;45859;51.378;6.736;2023-01-23T10:18:38;14.88;;;7.07;;
59998;SDS011;45859;51.378;6.736;2023-01-23T10:30:04;12.48;;;6.50;;
59998;SDS011;45859;51.378;6.736;2023-01-23T10:32:54;13.43;;;6.23;;
59998;SDS011;45859;51.378;6.736;2023-01-23T10:35:24;12.50;;;5.93;;
59998;SDS011;45859;51.378;6.736;2023-01-23T10:40:53;11.87;;;5.80;;
59998;SDS011;45859;51.378;6.736;2023-01-23T10:43:37;14.20;;;6.30;;
59998;SDS011;45859;51.378;6.736;2023-01-23T10:46:09;12.20;;;6.30;;
59998;SDS011;45859;51.378;6.736;2023-01-23T10:48:47;13.10;;;7.57;;
59998;SDS011;45859;51.378;6.736;2023-01-23T10:56:46;14.57;;;5.93;;
59998;SDS011;45859;51.378;6.736;2023-01-23T10:59:25;13.03;;;6.93;;
59998;SDS011;45859;51.378;6.736;2023-01-23T11:02:02;14.10;;;5.53;;
59998;SDS011;45859;51.378;6.736;2023-01-23T11:04:43;4.83;;;3.20;;
59998;SDS011;45859;51.378;6.736;2023-01-23T11:07:15;13.60;;;6.20;;
59998;SDS011;45859;51.378;6.736;2023-01-23T11:12:16;15.13;;;6.87;;
59998;SDS011;45859;51.378;6.736;2023-01-23T11:17:46;14.67;;;5.90;;
59998;SDS011;45859;51.378;6.736;2023-01-23T11:20:35;12.47;;;4.47;;
59998;SDS011;45859;51.378;6.736;2023-01-23T11:28:22;11.25;;;5.30;;
59998;SDS011;45859;51.378;6.736;2023-01-23T11:30:52;16.50;;;6.60;;
59998;SDS011;45859;51.378;6.736;2023-01-23T11:35:52;10.47;;;5.27;;
59998;SDS011;45859;51.378;6.736;2023-01-23T11:38:40;7.40;;;2.97;;
59998;SDS011;45859;51.378;6.736;2023-01-23T11:41:09;12.23;;;5.73;;
59998;SDS011;45859;51.378;6.736;2023-01-23T11:43:37;12.87;;;6.10;;
59998;SDS011;45859;51.378;6.736;2023-01-23T11:59:55;7.17;;;3.50;;
59998;SDS011;45859;51.378;6.736;2023-01-23T12:08:13;9.27;;;3.97;;
59998;SDS011;45859;51.378;6.736;2023-01-23T12:11:02;8.13;;;3.57;;
59998;SDS011;45859;51.378;6.736;2023-01-23T12:14:02;8.90;;;4.87;;
59998;SDS011;45859;51.378;6.736;2023-01-23T12:27:34;5.67;;;3.30;;
59998;SDS011;45859;51.378;6.736;2023-01-23T12:35:31;7.17;;;3.40;;
59998;SDS011;45859;51.378;6.736;2023-01-23T12:38:23;8.70;;;3.83;;
59998;SDS011;45859;51.378;6.736;2023-01-23T12:41:01;7.43;;;3.90;;
59998;SDS011;45859;51.378;6.736;2023-01-23T12:46:22;6.70;;;2.90;;
59998;SDS011;45859;51.378;6.736;2023-01-23T12:48:56;7.23;;;3.83;;
59998;SDS011;45859;51.378;6.736;2023-01-23T12:51:35;7.00;;;3.30;;
59998;SDS011;45859;51.378;6.736;2023-01-23T12:54:04;9.43;;;4.17;;
59998;SDS011;45859;51.378;6.736;2023-01-23T12:56:44;7.13;;;3.70;;
59998;SDS011;45859;51.378;6.736;2023-01-23T12:59:16;6.13;;;2.60;;
59998;SDS011;45859;51.378;6.736;2023-01-23T13:01:51;9.73;;;4.27;;
59998;SDS011;45859;51.378;6.736;2023-01-23T13:04:36;5.10;;;3.17;;
59998;SDS011;45859;51.378;6.736;2023-01-23T13:12:35;5.13;;;2.97;;
59998;SDS011;45859;51.378;6.736;2023-01-23T13:15:35;8.87;;;3.50;;
59998;SDS011;45859;51.378;6.736;2023-01-23T13:18:01;6.93;;;3.63;;
59998;SDS011;45859;51.378;6.736;2023-01-23T13:33:58;9.85;;;4.32;;
59998;SDS011;45859;51.378;6.736;2023-01-23T13:36:27;11.70;;;4.23;;
59998;SDS011;45859;51.378;6.736;2023-01-23T13:38:59;8.70;;;4.07;;
59998;SDS011;45859;51.378;6.736;2023-01-23T13:41:27;10.30;;;4.57;;
59998;SDS011;45859;51.378;6.736;2023-01-23T13:44:01;11.45;;;4.72;;
59998;SDS011;45859;51.378;6.736;2023-01-23T13:46:51;13.53;;;5.47;;
59998;SDS011;45859;51.378;6.736;2023-01-23T13:52:43;9.73;;;4.93;;
59998;SDS011;45859;51.378;6.736;2023-01-23T13:55:38;8.83;;;4.73;;
59998;SDS011;45859;51.378;6.736;2023-01-23T13:58:25;14.53;;;5.20;;
59998;SDS011;45859;51.378;6.736;2023-01-23T14:03:45;13.43;;;5.77;;
59998;SDS011;45859;51.378;6.736;2023-01-23T14:06:37;14.83;;;6.27;;
59998;SDS011;45859;51.378;6.736;2023-01-23T14:09:27;20.33;;;7.60;;
59998;SDS011;45859;51.378;6.736;2023-01-23T14:14:23;16.10;;;6.97;;
59998;SDS011;45859;51.378;6.736;2023-01-23T14:17:08;9.57;;;4.77;;
59998;SDS011;45859;51.378;6.736;2023-01-23T14:19:37;10.70;;;5.73;;
59998;SDS011;45859;51.378;6.736;2023-01-23T14:22:28;13.50;;;6.07;;
59998;SDS011;45859;51.378;6.736;2023-01-23T14:24:56;11.90;;;5.80;;
59998;SDS011;45859;51.378;6.736;2023-01-23T14:30:13;15.03;;;6.87;;
59998;SDS011;45859;51.378;6.736;2023-01-23T14:32:43;17.73;;;6.77;;
59998;SDS011;45859;51.378;6.736;2023-01-23T14:35:24;7.30;;;2.83;;
59998;SDS011;45859;51.378;6.736;2023-01-23T14:38:04;19.03;;;8.47;;
59998;SDS011;45859;51.378;6.736;2023-01-23T14:40:32;16.00;;;7.07;;
59998;SDS011;45859;51.378;6.736;2023-01-23T14:43:02;18.73;;;7.70;;
59998;SDS011;45859;51.378;6.736;2023-01-23T14:45:31;15.37;;;7.07;;
59998;SDS011;45859;51.378;6.736;2023-01-23T14:47:58;20.43;;;9.60;;
59998;SDS011;45859;51.378;6.736;2023-01-23T14:50:25;17.63;;;8.83;;
59998;SDS011;45859;51.378;6.736;2023-01-23T14:53:01;27.85;;;11.75;;
59998;SDS011;45859;51.378;6.736;2023-01-23T14:55:27;25.87;;;10.33;;
59998;SDS011;45859;51.378;6.736;2023-01-23T14:57:55;21.53;;;9.90;;
59998;SDS011;45859;51.378;6.736;2023-01-23T15:00:23;29.63;;;12.50;;
59998;SDS011;45859;51.378;6.736;2023-01-23T15:02:50;27.70;;;12.93;;
59998;SDS011;45859;51.378;6.736;2023-01-23T15:05:19;28.20;;;11.97;;
59998;SDS011;45859;51.378;6.736;2023-01-23T15:10:28;20.77;;;9.13;;
59998;SDS011;45859;51.378;6.736;2023-01-23T15:15:29;19.90;;;9.40;;
59998;SDS011;45859;51.378;6.736;2023-01-23T15:17:57;14.83;;;7.70;;
59998;SDS011;45859;51.378;6.736;2023-01-23T15:26:06;13.73;;;6.70;;
59998;SDS011;45859;51.378;6.736;2023-01-23T15:28:40;13.43;;;7.07;;
59998;SDS011;45859;51.378;6.736;2023-01-23T15:33:51;11.10;;;5.50;;
59998;SDS011;45859;51.378;6.736;2023-01-23T15:36:28;12.53;;;5.00;;
59998;SDS011;45859;51.378;6.736;2023-01-23T15:38:55;10.17;;;5.43;;
59998;SDS011;45859;51.378;6.736;2023-01-23T15:41:41;10.30;;;4.77;;
59998;SDS011;45859;51.378;6.736;2023-01-23T15:44:16;9.07;;;4.23;;
59998;SDS011;45859;51.378;6.736;2023-01-23T15:46:43;9.70;;;3.73;;
59998;SDS011;45859;51.378;6.736;2023-01-23T15:49:09;10.47;;;5.53;;
59998;SDS011;45859;51.378;6.736;2023-01-23T15:51:35;12.13;;;5.67;;
59998;SDS011;45859;51.378;6.736;2023-01-23T15:54:02;9.20;;;4.60;;
59998;SDS011;45859;51.378;6.736;2023-01-23T15:56:29;9.63;;;5.23;;
59998;SDS011;45859;51.378;6.736;2023-01-23T15:58:56;5.80;;;3.23;;
59998;SDS011;45859;51.378;6.736;2023-01-23T16:01:24;5.47;;;2.63;;
59998;SDS011;45859;51.378;6.736;2023-01-23T16:03:50;8.20;;;4.40;;
59998;SDS011;45859;51.378;6.736;2023-01-23T16:06:20;8.30;;;4.27;;
59998;SDS011;45859;51.378;6.736;2023-01-23T16:08:47;9.23;;;4.70;;
59998;SDS011;45859;51.378;6.736;2023-01-23T16:11:17;6.05;;;2.65;;
59998;SDS011;45859;51.378;6.736;2023-01-23T16:13:43;8.03;;;4.07;;
59998;SDS011;45859;51.378;6.736;2023-01-23T16:16:13;9.73;;;5.07;;
59998;SDS011;45859;51.378;6.736;2023-01-23T16:18:40;8.53;;;4.80;;
59998;SDS011;45859;51.378;6.736;2023-01-23T16:21:06;11.67;;;4.90;;
59998;SDS011;45859;51.378;6.736;2023-01-23T16:23:37;9.23;;;4.53;;
59998;SDS011;45859;51.378;6.736;2023-01-23T16:26:03;9.10;;;4.63;;
59998;SDS011;45859;51.378;6.736;2023-01-23T16:28:32;10.83;;;4.80;;
59998;SDS011;45859;51.378;6.736;2023-01-23T16:30:58;12.80;;;5.30;;
59998;SDS011;45859;51.378;6.736;2023-01-23T16:33:23;7.00;;;2.73;;
59998;SDS011;45859;51.378;6.736;2023-01-23T16:35:49;10.03;;;4.57;;
59998;SDS011;45859;51.378;6.736;2023-01-23T16:38:20;9.37;;;3.93;;
59998;SDS011;45859;51.378;6.736;2023-01-23T16:40:48;8.93;;;4.67;;
59998;SDS011;45859;51.378;6.736;2023-01-23T16:43:17;12.37;;;5.67;;
59998;SDS011;45859;51.378;6.736;2023-01-23T16:45:43;7.50;;;3.77;;
59998;SDS011;45859;51.378;6.736;2023-01-23T16:48:09;9.57;;;4.90;;
59998;SDS011;45859;51.378;6.736;2023-01-23T16:50:35;4.60;;;2.43;;
59998;SDS011;45859;51.378;6.736;2023-01-23T16:53:23;5.57;;;3.07;;
59998;SDS011;45859;51.378;6.736;2023-01-23T16:55:54;6.73;;;3.30;;
59998;SDS011;45859;51.378;6.736;2023-01-23T16:58:23;9.77;;;3.60;;
59998;SDS011;45859;51.378;6.736;2023-01-23T17:00:52;8.63;;;4.32;;
59998;SDS011;45859;51.378;6.736;2023-01-23T17:03:25;8.20;;;4.57;;
59998;SDS011;45859;51.378;6.736;2023-01-23T17:05:56;10.67;;;5.80;;
59998;SDS011;45859;51.378;6.736;2023-01-23T17:08:22;11.97;;;5.83;;
59998;SDS011;45859;51.378;6.736;2023-01-23T17:10:51;9.27;;;5.07;;
59998;SDS011;45859;51.378;6.736;2023-01-23T17:13:20;10.37;;;5.50;;